Time;durP1;ratioP1;P1;durP2;ratioP2;P2;SDS_P1;SDS_P2;PMS_P1;PMS_P2;Temp;Humidity;BMP_temperature;BMP_pressure;BME280_temperature;BME280_humidity;BME280_pressure;Samples;Min_cycle;Max_cycle;Signal;HPM_P1;HPM_P2
2023/09/24 00:01:44;;;;;;;20.67;14.48;;;;;;;8.85;100.00;102192.19;5015737;28;20029;-63
2023/09/24 00:04:10;;;;;;;21.85;14.43;;;;;;;8.83;100.00;102199.91;5011662;28;20049;-63
2023/09/24 00:06:36;;;;;;;20.80;14.57;;;;;;;8.80;100.00;102200.44;5030471;28;20397;-63
2023/09/24 00:09:01;;;;;;;20.17;14.48;;;;;;;8.74;100.00;102196.78;5011666;28;20078;-63
2023/09/24 00:11:26;;;;;;;21.33;14.80;;;;;;;8.72;100.00;102199.81;5015739;28;20112;-63
2023/09/24 00:13:52;;;;;;;22.50;15.20;;;;;;;8.69;100.00;102197.56;5027334;28;20101;-63
2023/09/24 00:16:19;;;;;;;22.35;14.38;;;;;;;8.62;100.00;102196.09;5017226;28;20026;-63
2023/09/24 00:18:44;;;;;;;21.00;14.70;;;;;;;8.62;100.00;102207.97;5011138;28;20026;-63
2023/09/24 00:21:10;;;;;;;21.95;14.73;;;;;;;8.61;100.00;102214.59;5022010;28;20052;-64
2023/09/24 00:23:36;;;;;;;21.90;14.77;;;;;;;8.57;100.00;102216.19;5031441;28;20026;-63
2023/09/24 00:26:02;;;;;;;20.58;14.77;;;;;;;8.52;100.00;102216.97;5030876;28;20033;-63
2023/09/24 00:28:27;;;;;;;20.70;14.32;;;;;;;8.50;100.00;102216.38;5019383;28;20033;-63
2023/09/24 00:30:54;;;;;;;24.90;14.90;;;;;;;8.47;100.00;102213.28;5016580;28;20022;-64
2023/09/24 00:33:21;;;;;;;19.88;14.00;;;;;;;8.43;100.00;102201.94;5020426;28;20034;-63
2023/09/24 00:35:46;;;;;;;21.13;14.30;;;;;;;8.42;100.00;102205.78;5011631;28;20038;-63
2023/09/24 00:38:12;;;;;;;20.83;14.30;;;;;;;8.39;100.00;102217.34;5022347;28;20032;-64
2023/09/24 00:40:37;;;;;;;20.30;14.00;;;;;;;8.36;100.00;102215.09;5023934;28;20025;-64
2023/09/24 00:43:03;;;;;;;23.38;14.35;;;;;;;8.26;100.00;102200.09;5027326;28;20119;-63
2023/09/24 00:45:28;;;;;;;21.88;14.35;;;;;;;8.26;100.00;102210.31;5012919;28;20053;-64
2023/09/24 00:47:56;;;;;;;22.88;14.48;;;;;;;8.24;100.00;102207.78;5011531;28;20030;-63
2023/09/24 00:50:23;;;;;;;21.30;14.43;;;;;;;8.23;100.00;102211.63;5013029;28;20026;-63
2023/09/24 00:52:50;;;;;;;20.20;14.05;;;;;;;8.22;100.00;102220.97;5011176;28;20022;-64
2023/09/24 00:55:16;;;;;;;22.77;15.02;;;;;;;8.22;100.00;102231.19;5019657;28;20034;-64
2023/09/24 00:57:43;;;;;;;22.20;14.32;;;;;;;8.17;100.00;102226.44;5011216;28;20025;-63
2023/09/24 01:00:15;;;;;;;21.55;14.73;;;;;;;8.19;100.00;102232.53;5023656;28;20061;-63
2023/09/24 01:02:40;;;;;;;22.85;15.27;;;;;;;8.23;100.00;102232.84;5023179;28;20064;-63
2023/09/24 01:05:10;;;;;;;22.70;15.75;;;;;;;8.26;100.00;102224.09;5025487;28;20128;-63
2023/09/24 01:07:36;;;;;;;22.17;14.85;;;;;;;8.21;100.00;102227.63;5018312;28;20018;-63
2023/09/24 01:10:02;;;;;;;22.70;15.50;;;;;;;8.23;100.00;102224.59;5030769;28;20041;-64
2023/09/24 01:12:29;;;;;;;22.48;15.30;;;;;;;8.20;100.00;102228.69;5018129;28;20044;-63
2023/09/24 01:14:57;;;;;;;22.77;15.13;;;;;;;8.17;100.00;102218.16;5011251;28;20018;-63
2023/09/24 01:17:25;;;;;;;21.50;14.80;;;;;;;8.15;100.00;102222.28;5015348;28;20507;-64
2023/09/24 01:19:55;;;;;;;24.98;15.43;;;;;;;8.10;100.00;102221.13;5016354;28;20029;-63
2023/09/24 01:22:21;;;;;;;23.48;15.00;;;;;;;8.07;100.00;102229.91;5024421;28;20549;-63
2023/09/24 01:24:46;;;;;;;23.27;15.27;;;;;;;8.05;100.00;102218.31;5020143;28;20065;-63
2023/09/24 01:27:12;;;;;;;23.85;15.18;;;;;;;8.05;100.00;102222.97;5018539;28;20049;-64
2023/09/24 01:29:37;;;;;;;21.83;15.05;;;;;;;8.04;100.00;102224.91;5016485;28;20224;-63
2023/09/24 01:32:06;;;;;;;22.92;15.40;;;;;;;8.00;100.00;102225.66;5020210;28;20049;-63
2023/09/24 01:34:32;;;;;;;23.45;15.63;;;;;;;8.00;100.00;102222.91;5020950;28;20028;-63
2023/09/24 01:36:58;;;;;;;21.65;15.20;;;;;;;7.97;100.00;102216.00;5014421;28;20034;-63
2023/09/24 01:39:27;;;;;;;22.35;15.27;;;;;;;7.94;100.00;102214.56;5017195;28;20469;-63
2023/09/24 01:41:52;;;;;;;23.60;15.95;;;;;;;7.93;100.00;102212.91;5024152;28;20022;-63
2023/09/24 01:44:21;;;;;;;24.30;15.73;;;;;;;7.92;100.00;102214.00;5017379;28;20516;-63
2023/09/24 01:46:47;;;;;;;25.52;15.93;;;;;;;7.93;100.00;102215.66;5030486;28;20056;-63
2023/09/24 01:49:13;;;;;;;23.17;16.17;;;;;;;7.90;100.00;102218.94;5031131;28;20072;-63
2023/09/24 01:51:38;;;;;;;24.25;16.15;;;;;;;7.92;100.00;102216.75;5014239;28;20464;-63
2023/09/24 01:54:04;;;;;;;25.83;15.98;;;;;;;7.89;100.00;102222.78;5014047;28;20032;-63
2023/09/24 01:56:30;;;;;;;23.05;16.13;;;;;;;7.87;100.00;102213.91;5026392;28;20073;-63
2023/09/24 01:58:56;;;;;;;24.65;16.38;;;;;;;7.86;100.00;102220.50;5014084;28;20030;-63
2023/09/24 02:01:22;;;;;;;22.13;16.35;;;;;;;7.84;100.00;102214.41;5026021;28;20164;-64
2023/09/24 02:03:48;;;;;;;21.80;15.98;;;;;;;7.80;100.00;102216.84;5025754;28;20035;-63
2023/09/24 02:06:16;;;;;;;22.85;16.58;;;;;;;7.81;100.00;102209.44;5032566;28;20026;-63
2023/09/24 02:08:41;;;;;;;23.52;16.77;;;;;;;7.82;100.00;102211.09;5033592;28;20059;-64
2023/09/24 02:11:07;;;;;;;23.13;17.27;;;;;;;7.84;100.00;102208.91;5032679;28;21061;-63
2023/09/24 02:13:32;;;;;;;24.67;17.45;;;;;;;7.82;100.00;102213.84;5032368;28;20041;-63
2023/09/24 02:16:01;;;;;;;26.40;18.60;;;;;;;7.85;100.00;102213.31;5033412;28;20036;-63
2023/09/24 02:18:32;;;;;;;25.35;17.63;;;;;;;7.84;100.00;102217.16;5026077;28;20504;-63
2023/09/24 02:20:59;;;;;;;24.98;17.42;;;;;;;7.85;100.00;102224.34;5013772;28;20030;-63
2023/09/24 02:23:25;;;;;;;24.48;17.52;;;;;;;7.84;100.00;102225.44;5014339;28;20402;-62
2023/09/24 02:25:51;;;;;;;24.65;18.08;;;;;;;7.84;100.00;102233.69;5023671;28;20033;-63
2023/09/24 02:28:17;;;;;;;25.77;17.88;;;;;;;7.82;100.00;102233.16;5005902;28;20036;-63
2023/09/24 02:30:43;;;;;;;25.63;17.85;;;;;;;7.83;100.00;102245.84;5031742;28;20064;-64
2023/09/24 02:33:09;;;;;;;24.45;17.67;;;;;;;7.83;100.00;102244.97;5024713;28;20192;-63
2023/09/24 02:35:35;;;;;;;25.52;18.20;;;;;;;7.81;100.00;102237.81;5014703;28;20028;-63
2023/09/24 02:38:00;;;;;;;24.15;17.95;;;;;;;7.80;100.00;102238.06;5032126;28;20025;-63
2023/09/24 02:40:28;;;;;;;26.63;18.20;;;;;;;7.81;100.00;102248.00;5029675;28;20018;-63
2023/09/24 02:42:58;;;;;;;25.15;17.75;;;;;;;7.79;100.00;102241.91;5026680;28;20077;-63
2023/09/24 02:45:26;;;;;;;26.88;18.85;;;;;;;7.78;100.00;102254.00;5026219;28;20125;-63
2023/09/24 02:47:52;;;;;;;26.75;18.23;;;;;;;7.78;100.00;102243.84;5032845;28;20551;-63
2023/09/24 02:50:23;;;;;;;26.02;18.52;;;;;;;7.75;100.00;102249.00;5013247;28;20029;-63
2023/09/24 02:52:52;;;;;;;26.48;18.25;;;;;;;7.72;100.00;102249.50;5030207;28;20036;-63
2023/09/24 02:55:19;;;;;;;24.85;18.45;;;;;;;7.69;100.00;102242.59;5032639;28;20432;-62
2023/09/24 02:57:46;;;;;;;26.13;18.33;;;;;;;7.67;100.00;102250.28;5032454;28;20033;-63
2023/09/24 03:00:26;;;;;;;25.55;18.20;;;;;;;7.64;100.00;102237.00;5032717;28;20030;-62
2023/09/24 03:02:53;;;;;;;26.05;18.25;;;;;;;7.61;100.00;102246.59;5028040;28;20032;-63
2023/09/24 03:05:24;;;;;;;25.80;18.42;;;;;;;7.59;100.00;102243.25;5032691;28;20032;-62
2023/09/24 03:07:54;;;;;;;25.17;18.50;;;;;;;7.56;100.00;102243.75;5031125;28;20030;-63
2023/09/24 03:10:20;;;;;;;25.48;18.15;;;;;;;7.56;100.00;102249.25;5024004;28;20033;-63
2023/09/24 03:12:47;;;;;;;25.55;17.52;;;;;;;7.54;100.00;102254.22;5032151;28;20026;-63
2023/09/24 03:15:13;;;;;;;26.48;18.10;;;;;;;7.50;100.00;102250.28;5013987;28;20026;-62
2023/09/24 03:17:43;;;;;;;23.02;16.90;;;;;;;7.47;100.00;102250.75;5011362;28;20030;-62
2023/09/24 03:20:15;;;;;;;25.20;18.02;;;;;;;7.50;100.00;102253.03;5026922;28;20078;-63
2023/09/24 03:22:49;;;;;;;25.00;17.88;;;;;;;7.46;100.00;102255.44;5020430;28;20444;-63
2023/09/24 03:25:26;;;;;;;23.70;17.58;;;;;;;7.43;100.00;102252.38;5017977;28;20049;-62
2023/09/24 03:27:54;;;;;;;25.17;17.08;;;;;;;7.40;100.00;102264.72;5013505;28;20076;-63
2023/09/24 03:30:20;;;;;;;26.05;17.95;;;;;;;7.41;100.00;102254.53;5012694;28;20060;-63
2023/09/24 03:32:46;;;;;;;24.92;18.08;;;;;;;7.40;100.00;102261.13;5024432;28;20041;-63
2023/09/24 03:35:13;;;;;;;24.20;18.27;;;;;;;7.41;100.00;102260.03;5028464;28;20030;-63
2023/09/24 03:37:43;;;;;;;25.10;18.75;;;;;;;7.41;100.00;102271.91;5012241;28;20511;-63
2023/09/24 03:40:19;;;;;;;26.02;18.23;;;;;;;7.41;100.00;102279.31;5022922;28;20040;-63
2023/09/24 03:42:46;;;;;;;27.30;18.75;;;;;;;7.42;100.00;102272.72;5027472;28;20045;-63
2023/09/24 03:45:13;;;;;;;25.00;17.70;;;;;;;7.38;100.00;102271.53;5013241;28;20030;-63
2023/09/24 03:47:39;;;;;;;24.55;17.15;;;;;;;7.37;100.00;102278.16;5026838;28;20033;-63
2023/09/24 03:50:06;;;;;;;24.23;17.33;;;;;;;7.32;100.00;102273.41;5030297;28;20109;-63
2023/09/24 03:52:32;;;;;;;27.52;17.92;;;;;;;7.29;100.00;102273.88;5021152;28;20095;-63
2023/09/24 03:54:59;;;;;;;23.95;17.70;;;;;;;7.29;100.00;102290.41;5027662;28;20120;-63
2023/09/24 03:57:27;;;;;;;25.65;17.25;;;;;;;7.26;100.00;102283.50;5017820;28;20040;-63
2023/09/24 03:59:56;;;;;;;24.75;17.10;;;;;;;7.23;100.00;102289.47;5013608;28;20465;-63
2023/09/24 04:02:22;;;;;;;23.50;16.80;;;;;;;7.22;100.00;102285.06;5014117;28;20112;-63
2023/09/24 04:04:48;;;;;;;24.05;16.48;;;;;;;7.23;100.00;102288.63;5015698;28;20037;-63
2023/09/24 04:07:15;;;;;;;23.65;16.23;;;;;;;7.21;100.00;102288.88;5010300;28;20030;-63
2023/09/24 04:09:43;;;;;;;24.27;16.63;;;;;;;7.18;100.00;102289.38;5020071;28;20092;-63
2023/09/24 04:12:09;;;;;;;25.58;16.40;;;;;;;7.15;100.00;102293.47;5012706;28;20034;-62
2023/09/24 04:14:35;;;;;;;26.20;16.52;;;;;;;7.16;100.00;102299.81;5030984;28;20038;-63
2023/09/24 04:17:02;;;;;;;23.65;16.63;;;;;;;7.11;100.00;102295.06;5030593;28;20025;-63
2023/09/24 04:19:27;;;;;;;25.65;16.63;;;;;;;7.13;100.00;102292.03;5011688;28;20033;-63
2023/09/24 04:21:53;;;;;;;23.08;16.25;;;;;;;7.11;100.00;102296.94;5020292;28;20026;-62
2023/09/24 04:24:19;;;;;;;23.88;16.10;;;;;;;7.11;100.00;102305.22;5028258;28;20032;-63
2023/09/24 04:26:47;;;;;;;24.27;16.10;;;;;;;7.09;100.00;102305.47;5031205;28;20037;-63
2023/09/24 04:29:15;;;;;;;23.85;16.13;;;;;;;7.08;100.00;102302.97;5031457;28;20036;-63
2023/09/24 04:31:42;;;;;;;23.42;16.35;;;;;;;7.05;100.00;102307.03;5023177;28;20101;-63
2023/09/24 04:34:09;;;;;;;24.85;16.38;;;;;;;7.04;100.00;102305.34;5011750;28;20426;-63
2023/09/24 04:36:34;;;;;;;22.55;16.67;;;;;;;7.02;100.00;102305.59;5029201;28;20051;-62
2023/09/24 04:39:00;;;;;;;24.10;17.33;;;;;;;7.03;100.00;102311.97;5031098;28;20025;-62
2023/09/24 04:41:25;;;;;;;23.27;16.20;;;;;;;7.02;100.00;102311.09;5020444;28;20397;-62
2023/09/24 04:43:52;;;;;;;23.90;16.63;;;;;;;6.99;100.00;102311.59;5022073;28;20103;-63
2023/09/24 04:46:17;;;;;;;22.85;16.58;;;;;;;6.98;100.00;102312.69;5024309;28;20504;-62
2023/09/24 04:48:43;;;;;;;23.15;17.02;;;;;;;6.97;100.00;102311.03;5030721;28;20113;-63
2023/09/24 04:51:08;;;;;;;22.85;16.10;;;;;;;6.96;100.00;102309.34;5023497;28;20030;-62
2023/09/24 04:53:33;;;;;;;25.10;16.25;;;;;;;6.96;100.00;102311.25;5012221;28;20385;-62
2023/09/24 04:55:59;;;;;;;22.88;16.52;;;;;;;6.95;100.00;102312.34;5018293;28;20099;-62
2023/09/24 04:58:24;;;;;;;23.88;16.08;;;;;;;6.94;100.00;102313.44;5021810;28;20061;-62
2023/09/24 05:00:50;;;;;;;23.98;16.20;;;;;;;6.94;100.00;102307.94;5034471;28;20349;-63
2023/09/24 05:03:16;;;;;;;22.50;15.95;;;;;;;6.93;100.00;102306.25;5016903;28;20044;-62
2023/09/24 05:05:42;;;;;;;22.50;16.52;;;;;;;6.91;100.00;102312.00;5029616;28;20414;-62
2023/09/24 05:08:08;;;;;;;22.67;15.75;;;;;;;6.90;100.00;102312.25;5029365;28;20113;-64
2023/09/24 05:10:36;;;;;;;22.70;15.68;;;;;;;6.90;100.00;102306.75;5021616;28;20045;-63
2023/09/24 05:13:02;;;;;;;23.65;15.73;;;;;;;6.86;100.00;102311.91;5023860;28;20026;-62
2023/09/24 05:15:28;;;;;;;22.67;15.32;;;;;;;6.84;100.00;102322.31;5025504;28;20045;-62
2023/09/24 05:17:53;;;;;;;25.23;15.13;;;;;;;6.81;100.00;102320.88;5015709;28;20022;-63
2023/09/24 05:20:18;;;;;;;22.77;15.30;;;;;;;6.81;100.00;102329.16;5024400;28;20041;-63
2023/09/24 05:22:43;;;;;;;22.15;15.68;;;;;;;6.75;100.00;102327.38;5016581;28;20036;-64
2023/09/24 05:25:09;;;;;;;23.15;15.80;;;;;;;6.80;100.00;102327.47;5033801;28;20049;-63
2023/09/24 05:27:34;;;;;;;22.98;14.98;;;;;;;6.79;100.00;102331.28;5034343;28;20333;-63
2023/09/24 05:30:01;;;;;;;23.33;15.85;;;;;;;6.80;100.00;102334.91;5034144;28;20132;-63
2023/09/24 05:32:26;;;;;;;22.20;14.90;;;;;;;6.79;100.00;102339.53;5028530;28;20552;-63
2023/09/24 05:34:52;;;;;;;23.33;14.40;;;;;;;6.77;100.00;102336.19;5034124;28;20057;-63
2023/09/24 05:37:18;;;;;;;23.77;14.30;;;;;;;6.83;100.00;102348.16;5033814;28;20041;-63
2023/09/24 05:39:43;;;;;;;23.23;15.00;;;;;;;6.83;100.00;102348.16;5031188;28;20037;-63
2023/09/24 05:42:08;;;;;;;22.10;14.50;;;;;;;6.83;100.00;102351.75;5030744;28;20041;-63
2023/09/24 05:44:34;;;;;;;23.30;15.13;;;;;;;6.80;100.00;102351.41;5029047;28;20501;-64
2023/09/24 05:46:59;;;;;;;22.92;14.85;;;;;;;6.86;100.00;102358.66;5032783;28;20094;-64
2023/09/24 05:49:25;;;;;;;22.35;14.90;;;;;;;6.90;100.00;102365.34;5034148;28;20053;-63
2023/09/24 05:51:50;;;;;;;21.27;14.07;;;;;;;6.93;100.00;102367.63;5018819;28;20081;-64
2023/09/24 05:54:15;;;;;;;22.42;14.10;;;;;;;6.96;100.00;102369.88;5017172;28;20386;-64
2023/09/24 05:56:41;;;;;;;22.58;14.88;;;;;;;6.99;100.00;102369.38;5013925;28;20022;-64
2023/09/24 05:59:06;;;;;;;23.67;14.65;;;;;;;7.02;100.00;102374.41;5023812;28;20021;-63
2023/09/24 06:01:32;;;;;;;22.33;14.23;;;;;;;7.03;100.00;102373.31;5033711;28;20029;-63
2023/09/24 06:03:57;;;;;;;23.88;15.02;;;;;;;7.08;100.00;102369.84;5025652;28;20454;-63
2023/09/24 06:06:22;;;;;;;23.42;14.65;;;;;;;7.14;100.00;102371.59;5032461;28;20038;-64
2023/09/24 06:08:48;;;;;;;23.02;15.00;;;;;;;7.19;100.00;102373.63;5025417;28;20462;-64
2023/09/24 06:11:13;;;;;;;23.55;14.88;;;;;;;7.23;100.00;102371.19;5013912;28;20374;-63
2023/09/24 06:13:38;;;;;;;25.52;15.18;;;;;;;7.30;100.00;102371.91;5013742;28;20041;-63
2023/09/24 06:16:05;;;;;;;22.33;14.43;;;;;;;7.38;100.00;102371.50;5022599;28;20469;-63
2023/09/24 06:18:30;;;;;;;22.70;14.63;;;;;;;7.43;100.00;102366.09;5015482;28;20116;-63
2023/09/24 06:20:56;;;;;;;22.58;14.80;;;;;;;7.50;100.00;102374.19;5030159;28;20092;-63
2023/09/24 06:23:22;;;;;;;24.60;15.20;;;;;;;7.59;100.00;102377.41;5030717;28;20040;-63
2023/09/24 06:25:55;;;;;;;25.17;16.67;;;;;;;7.63;100.00;102373.91;5033505;28;20033;-64
2023/09/24 06:28:20;;;;;;;23.27;15.00;;;;;;;7.71;100.00;102386.41;5015803;28;20485;-63
2023/09/24 06:30:46;;;;;;;23.42;14.75;;;;;;;7.77;100.00;102387.31;5019607;28;20025;-63
2023/09/24 06:33:11;;;;;;;23.90;14.13;;;;;;;7.83;100.00;102391.88;5018628;28;20046;-64
2023/09/24 06:35:37;;;;;;;21.48;14.18;;;;;;;7.87;100.00;102393.00;5033110;28;20029;-63
2023/09/24 06:38:03;;;;;;;23.40;14.63;;;;;;;7.91;100.00;102393.34;5031997;28;20038;-63
2023/09/24 06:40:29;;;;;;;22.70;13.50;;;;;;;7.93;100.00;102400.31;5030795;28;20159;-63
2023/09/24 06:42:55;;;;;;;21.48;13.85;;;;;;;7.96;100.00;102394.28;5029190;28;20026;-63
2023/09/24 06:45:21;;;;;;;21.90;13.98;;;;;;;8.00;100.00;102402.03;5033074;28;20045;-62
2023/09/24 06:47:46;;;;;;;22.17;14.02;;;;;;;8.07;100.00;102402.72;5024451;28;20592;-63
2023/09/24 06:50:11;;;;;;;22.77;14.45;;;;;;;8.09;100.00;102403.28;5020858;28;20429;-63
2023/09/24 06:52:37;;;;;;;22.52;14.13;;;;;;;8.11;100.00;102407.47;5013098;28;20052;-63
2023/09/24 06:55:03;;;;;;;21.73;13.95;;;;;;;8.16;100.00;102401.19;5024495;28;20022;-63
2023/09/24 06:57:31;;;;;;;21.90;13.95;;;;;;;8.18;100.00;102399.03;5025569;28;20029;-63
2023/09/24 06:59:56;;;;;;;21.17;13.98;;;;;;;8.20;100.00;102405.13;5031144;28;20021;-63
2023/09/24 07:02:22;;;;;;;22.73;14.48;;;;;;;8.22;100.00;102405.69;5021462;28;20121;-63
2023/09/24 07:04:48;;;;;;;22.95;14.40;;;;;;;8.26;100.00;102406.88;5027371;28;20104;-63
2023/09/24 07:07:14;;;;;;;21.50;14.07;;;;;;;8.30;100.00;102407.19;5016232;28;20026;-64
2023/09/24 07:09:40;;;;;;;21.25;14.13;;;;;;;8.34;100.00;102413.03;5013855;28;20525;-65
2023/09/24 07:12:05;;;;;;;24.25;17.90;;;;;;;8.39;100.00;102408.44;5021459;28;20021;-64
2023/09/24 07:14:31;;;;;;;24.90;14.68;;;;;;;8.41;100.00;102409.03;5022431;28;20083;-65
2023/09/24 07:16:56;;;;;;;23.70;13.80;;;;;;;8.48;100.00;102411.66;5021436;28;20087;-64
2023/09/24 07:19:21;;;;;;;22.30;13.32;;;;;;;8.52;100.00;102409.22;5022790;28;20040;-65
2023/09/24 07:21:49;;;;;;;21.83;13.77;;;;;;;8.57;100.00;102414.78;5019922;28;20033;-68
2023/09/24 07:24:14;;;;;;;23.08;14.52;;;;;;;8.64;100.00;102411.84;5030107;28;20458;-66
2023/09/24 07:26:42;;;;;;;24.38;14.80;;;;;;;8.72;100.00;102415.03;5020403;28;20075;-66
2023/09/24 07:29:08;;;;;;;23.58;14.07;;;;;;;8.83;100.00;102407.72;5017634;28;20040;-66
2023/09/24 07:31:34;;;;;;;23.95;14.48;;;;;;;8.90;100.00;102424.09;5025432;28;20049;-66
2023/09/24 07:34:00;;;;;;;23.23;14.25;;;;;;;9.01;100.00;102425.91;5021204;28;20021;-67
2023/09/24 07:36:26;;;;;;;22.38;13.50;;;;;;;9.09;100.00;102432.03;5030787;28;20021;-67
2023/09/24 07:38:51;;;;;;;23.05;14.00;;;;;;;9.17;100.00;102424.13;5023187;28;20472;-67
2023/09/24 07:41:18;;;;;;;21.75;14.27;;;;;;;9.28;100.00;102435.31;5011350;28;20162;-66
2023/09/24 07:43:44;;;;;;;22.90;14.00;;;;;;;9.39;100.00;102430.75;5022538;28;20030;-66
2023/09/24 07:46:14;;;;;;;23.33;14.45;;;;;;;9.48;100.00;102437.47;5019340;28;20424;-66
2023/09/24 07:48:42;;;;;;;22.42;13.80;;;;;;;9.56;100.00;102436.16;5012221;28;20370;-65
2023/09/24 07:51:07;;;;;;;22.08;13.25;;;;;;;9.66;100.00;102437.13;5019127;28;20037;-66
2023/09/24 07:53:33;;;;;;;22.45;14.00;;;;;;;9.78;100.00;102442.47;5018857;28;20033;-65
2023/09/24 07:56:06;;;;;;;22.80;13.60;;;;;;;9.87;100.00;102442.00;5010945;28;20029;-66
2023/09/24 07:58:32;;;;;;;22.05;13.18;;;;;;;9.97;100.00;102439.31;5028586;28;20033;-67
2023/09/24 08:01:05;;;;;;;22.25;13.93;;;;;;;10.08;100.00;102443.84;5026346;28;20040;-65
2023/09/24 08:03:31;;;;;;;23.65;13.55;;;;;;;10.20;100.00;102449.19;5022638;28;20041;-67
2023/09/24 08:05:57;;;;;;;21.38;12.82;;;;;;;10.31;100.00;102439.03;5028076;28;20489;-67
2023/09/24 08:08:23;;;;;;;23.95;13.27;;;;;;;10.39;100.00;102435.81;5030163;28;20134;-65
2023/09/24 08:10:50;;;;;;;22.48;13.23;;;;;;;10.53;100.00;102435.34;5012266;28;20037;-67
2023/09/24 08:13:15;;;;;;;20.73;13.38;;;;;;;10.66;100.00;102434.03;5024203;28;20079;-66
2023/09/24 08:15:40;;;;;;;22.02;13.45;;;;;;;10.74;100.00;102431.63;5021523;28;20115;-67
2023/09/24 08:18:09;;;;;;;22.88;12.90;;;;;;;10.87;100.00;102429.44;5019257;28;20044;-66
2023/09/24 08:20:36;;;;;;;23.15;12.65;;;;;;;10.95;100.00;102440.03;5021941;28;20458;-66
2023/09/24 08:23:01;;;;;;;23.67;13.32;;;;;;;11.07;100.00;102439.81;5016172;28;20544;-66
2023/09/24 08:25:26;;;;;;;20.52;12.25;;;;;;;11.19;100.00;102448.69;5022077;28;20082;-67
2023/09/24 08:27:52;;;;;;;22.55;12.20;;;;;;;11.33;100.00;102450.97;5010143;28;20026;-67
2023/09/24 08:30:19;;;;;;;19.70;11.80;;;;;;;11.43;100.00;102439.09;5013065;28;20037;-67
2023/09/24 08:32:45;;;;;;;20.98;11.60;;;;;;;11.53;100.00;102451.03;5018458;28;20079;-67
2023/09/24 08:35:10;;;;;;;22.55;12.10;;;;;;;11.65;100.00;102450.78;5016838;28;20052;-68
2023/09/24 08:37:35;;;;;;;20.92;11.82;;;;;;;11.72;100.00;102447.75;5017620;28;20037;-67
2023/09/24 08:40:01;;;;;;;20.42;11.55;;;;;;;11.86;100.00;102448.84;5021306;28;20026;-67
2023/09/24 08:42:26;;;;;;;19.23;11.80;;;;;;;11.96;100.00;102442.50;5030169;28;20464;-66
2023/09/24 08:45:04;;;;;;;19.27;11.77;;;;;;;12.07;100.00;102445.31;5020255;28;20033;-66
2023/09/24 08:47:32;;;;;;;19.27;11.75;;;;;;;12.21;100.00;102451.97;5021283;28;20033;-66
2023/09/24 08:50:00;;;;;;;18.65;11.13;;;;;;;12.29;100.00;102445.03;5012407;28;20034;-65
2023/09/24 08:52:25;;;;;;;19.20;10.50;;;;;;;12.47;100.00;102451.94;5020820;28;20400;-65
2023/09/24 08:54:51;;;;;;;18.88;11.07;;;;;;;12.59;100.00;102452.47;5022961;28;20100;-65
2023/09/24 08:57:16;;;;;;;19.15;10.73;;;;;;;12.73;100.00;102454.69;5021370;28;20334;-66
2023/09/24 08:59:41;;;;;;;21.50;11.48;;;;;;;12.80;100.00;102453.25;5026165;28;20021;-67
2023/09/24 09:02:06;;;;;;;19.45;10.35;;;;;;;12.89;100.00;102447.97;5017797;28;20029;-66
2023/09/24 09:04:33;;;;;;;19.23;10.70;;;;;;;13.04;100.00;102449.84;5010593;28;20026;-67
2023/09/24 09:07:13;;;;;;;19.10;10.52;;;;;;;13.17;100.00;102445.63;5023110;28;20029;-66
2023/09/24 09:09:38;;;;;;;20.83;10.80;;;;;;;13.34;100.00;102455.56;5030112;28;20208;-66
2023/09/24 09:12:04;;;;;;;18.65;10.10;;;;;;;13.47;100.00;102451.34;5030012;28;20508;-64
2023/09/24 09:14:37;;;;;;;18.55;9.95;;;;;;;13.57;100.00;102452.13;5030043;28;20473;-66
2023/09/24 09:17:03;;;;;;;18.43;10.00;;;;;;;13.68;100.00;102450.09;5030219;28;20510;-65
2023/09/24 09:19:47;;;;;;;17.73;9.95;;;;;;;13.77;100.00;102452.28;5025554;28;20300;-65
2023/09/24 09:22:23;;;;;;;18.55;9.85;;;;;;;13.82;100.00;102441.94;5010661;28;20026;-65
2023/09/24 09:25:09;;;;;;;17.70;9.82;;;;;;;13.95;100.00;102439.63;5010342;28;20030;-65
2023/09/24 09:27:36;;;;;;;17.75;9.70;;;;;;;14.03;100.00;102433.44;5010466;28;20112;-66
2023/09/24 09:30:13;;;;;;;19.73;9.70;;;;;;;14.16;100.00;102424.44;5010146;28;20560;-65
2023/09/24 09:32:38;;;;;;;15.80;9.27;;;;;;;14.25;100.00;102430.19;5010484;28;20050;-65
2023/09/24 09:35:05;;;;;;;16.05;9.25;;;;;;;14.33;100.00;102429.53;5009920;28;20462;-65
2023/09/24 09:37:30;;;;;;;16.25;9.48;;;;;;;14.39;100.00;102424.75;5010079;28;20025;-68
2023/09/24 09:39:56;;;;;;;15.52;9.27;;;;;;;14.49;100.00;102412.72;5010444;28;20022;-65
2023/09/24 09:42:25;;;;;;;15.20;8.90;;;;;;;14.63;100.00;102419.22;5023254;28;20021;-65
2023/09/24 09:44:52;;;;;;;16.70;9.48;;;;;;;14.79;100.00;102414.34;5033481;28;20151;-65
2023/09/24 09:47:19;;;;;;;16.75;9.02;;;;;;;14.85;100.00;102415.13;5033665;28;20185;-65
2023/09/24 09:49:59;;;;;;;16.42;8.57;;;;;;;14.90;100.00;102403.91;5033427;28;20389;-66
2023/09/24 09:52:32;;;;;;;16.25;9.35;;;;;;;14.98;100.00;102405.19;5023112;28;20120;-64
2023/09/24 09:55:01;;;;;;;17.20;9.70;;;;;;;15.07;100.00;102406.19;5013940;28;20036;-65
2023/09/24 09:57:30;;;;;;;15.77;8.90;;;;;;;15.12;100.00;102391.34;5011307;28;20144;-66
2023/09/24 09:59:56;;;;;;;14.98;9.00;;;;;;;15.32;100.00;102398.59;5014979;28;20096;-63
2023/09/24 10:02:22;;;;;;;15.68;8.88;;;;;;;15.41;100.00;102391.22;5029952;28;20470;-66
2023/09/24 10:04:48;;;;;;;14.07;8.48;;;;;;;15.47;99.78;102391.16;5033011;28;20034;-66
2023/09/24 10:07:15;;;;;;;16.02;8.50;;;;;;;15.50;99.93;102388.59;5033129;28;20046;-66
2023/09/24 10:09:40;;;;;;;13.90;8.48;;;;;;;15.55;99.39;102382.09;5033480;28;20026;-67
2023/09/24 10:12:07;;;;;;;15.68;8.70;;;;;;;15.58;98.67;102381.50;5033104;28;20029;-65
2023/09/24 10:14:33;;;;;;;15.95;8.90;;;;;;;15.63;99.37;102381.41;5014503;28;20322;-66
2023/09/24 10:17:19;;;;;;;14.40;8.90;;;;;;;15.71;100.00;102379.91;5032747;28;20029;-66
2023/09/24 10:19:50;;;;;;;16.23;8.95;;;;;;;15.80;98.88;102378.06;5032678;28;20091;-66
2023/09/24 10:22:31;;;;;;;16.05;9.00;;;;;;;15.89;100.00;102387.44;5020408;28;20057;-65
2023/09/24 10:28:00;;;;;;;16.60;9.13;;;;;;;16.05;94.87;102373.22;5013050;28;20539;-65
2023/09/24 10:30:44;;;;;;;15.80;8.80;;;;;;;16.03;92.37;102372.69;5012412;28;20029;-66
2023/09/24 14:24:45;;;;;;;12.50;8.20;;;;;;;19.76;62.14;102222.59;5039223;23;20494;-87
2023/09/24 14:27:11;;;;;;;14.35;8.15;;;;;;;19.76;61.14;102222.59;5044074;28;20125;-87
2023/09/24 14:29:38;;;;;;;10.85;7.50;;;;;;;19.77;59.78;102213.03;5041195;28;20110;-90
2023/09/24 14:32:04;;;;;;;11.77;7.85;;;;;;;19.77;59.27;102221.44;5046954;28;20098;-90
2023/09/24 14:34:31;;;;;;;13.23;7.88;;;;;;;19.78;58.95;102216.66;5025161;28;20099;-88
2023/09/24 14:36:58;;;;;;;12.43;7.93;;;;;;;19.69;57.54;102208.25;5023609;28;20307;-89
2023/09/24 14:39:23;;;;;;;12.98;7.85;;;;;;;19.62;58.41;102205.16;5028400;28;20118;-90
2023/09/24 14:41:49;;;;;;;14.45;7.80;;;;;;;19.67;59.19;102212.56;5028244;28;20036;-88
2023/09/24 14:44:15;;;;;;;11.02;7.43;;;;;;;19.68;57.45;102200.19;5033006;28;20045;-91
2023/09/24 14:46:44;;;;;;;13.15;7.78;;;;;;;19.70;59.73;102209.06;5045577;28;20025;-88
2023/09/24 14:49:13;;;;;;;12.70;7.68;;;;;;;19.75;57.20;102214.53;5051834;28;20064;-92
2023/09/24 14:51:39;;;;;;;13.88;8.95;;;;;;;19.73;58.25;102203.63;5049607;28;20021;-89
2023/09/24 14:54:05;;;;;;;11.93;7.82;;;;;;;19.74;58.14;102204.44;5048296;28;20013;-90
2023/09/24 14:56:32;;;;;;;13.05;7.80;;;;;;;19.72;56.89;102207.59;5050777;28;20009;-88
2023/09/24 14:58:57;;;;;;;11.88;7.80;;;;;;;19.71;58.49;102200.34;5051545;28;20025;-91
2023/09/24 15:01:22;;;;;;;13.00;7.70;;;;;;;19.73;57.56;102200.00;5047611;28;20053;-91
2023/09/24 15:03:49;;;;;;;12.15;7.93;;;;;;;19.73;58.61;102203.63;5051938;28;20009;-89